sensor_id;sensor_type;location;lat;lon;timestamp;pressure;altitude;pressure_sealevel;temperature;humidity
11001;BME280;5553;48.506;8.870;2023-04-27T00:02:22;96562.75;;;5.86;100.00
11001;BME280;5553;48.506;8.870;2023-04-27T00:04:50;96557.81;;;5.83;100.00
11001;BME280;5553;48.506;8.870;2023-04-27T00:07:19;96564.88;;;5.82;100.00
11001;BME280;5553;48.506;8.870;2023-04-27T00:09:47;96560.75;;;5.80;100.00
11001;BME280;5553;48.506;8.870;2023-04-27T00:12:16;96547.34;;;5.91;100.00
11001;BME280;5553;48.506;8.870;2023-04-27T00:14:44;96548.34;;;5.90;100.00
11001;BME280;5553;48.506;8.870;2023-04-27T00:17:12;96547.03;;;5.86;100.00
11001;BME280;5553;48.506;8.870;2023-04-27T00:19:43;96545.41;;;5.85;100.00
11001;BME280;5553;48.506;8.870;2023-04-27T00:22:11;96552.41;;;5.76;100.00
11001;BME280;5553;48.506;8.870;2023-04-27T00:24:40;96549.47;;;5.71;100.00
11001;BME280;5553;48.506;8.870;2023-04-27T00:27:08;96548.97;;;5.76;100.00
11001;BME280;5553;48.506;8.870;2023-04-27T00:29:37;96544.72;;;5.75;100.00
11001;BME280;5553;48.506;8.870;2023-04-27T00:32:07;96547.34;;;5.75;100.00
11001;BME280;5553;48.506;8.870;2023-04-27T00:34:35;96553.53;;;5.74;100.00
11001;BME280;5553;48.506;8.870;2023-04-27T00:37:06;96554.53;;;5.73;100.00
11001;BME280;5553;48.506;8.870;2023-04-27T00:39:35;96551.22;;;5.70;100.00
11001;BME280;5553;48.506;8.870;2023-04-27T00:42:03;96539.31;;;5.68;100.00
11001;BME280;5553;48.506;8.870;2023-04-27T00:44:36;96543.69;;;5.67;100.00
11001;BME280;5553;48.506;8.870;2023-04-27T00:47:04;96543.38;;;5.62;100.00
11001;BME280;5553;48.506;8.870;2023-04-27T00:49:32;96539.94;;;5.62;100.00
11001;BME280;5553;48.506;8.870;2023-04-27T00:52:01;96543.69;;;5.59;100.00
11001;BME280;5553;48.506;8.870;2023-04-27T00:54:32;96535.69;;;5.61;100.00
11001;BME280;5553;48.506;8.870;2023-04-27T00:57:01;96532.41;;;5.59;100.00
11001;BME280;5553;48.506;8.870;2023-04-27T00:59:30;96539.91;;;5.54;100.00
11001;BME280;5553;48.506;8.870;2023-04-27T01:01:59;96533.34;;;5.50;100.00
11001;BME280;5553;48.506;8.870;2023-04-27T01:04:28;96539.41;;;5.50;100.00
11001;BME280;5553;48.506;8.870;2023-04-27T01:06:57;96548.25;;;5.49;100.00
11001;BME280;5553;48.506;8.870;2023-04-27T01:09:27;96551.16;;;5.46;100.00
11001;BME280;5553;48.506;8.870;2023-04-27T01:11:57;96554.22;;;5.33;100.00
11001;BME280;5553;48.506;8.870;2023-04-27T01:14:27;96562.03;;;5.25;100.00
11001;BME280;5553;48.506;8.870;2023-04-27T01:16:55;96560.84;;;5.19;100.00
11001;BME280;5553;48.506;8.870;2023-04-27T01:19:24;96570.56;;;5.27;100.00
11001;BME280;5553;48.506;8.870;2023-04-27T01:21:53;96578.03;;;5.22;100.00
11001;BME280;5553;48.506;8.870;2023-04-27T01:24:23;96580.84;;;5.20;100.00
11001;BME280;5553;48.506;8.870;2023-04-27T01:26:52;96579.50;;;5.16;100.00
11001;BME280;5553;48.506;8.870;2023-04-27T01:29:20;96582.13;;;5.16;100.00
11001;BME280;5553;48.506;8.870;2023-04-27T01:31:48;96575.72;;;5.11;100.00
11001;BME280;5553;48.506;8.870;2023-04-27T01:34:16;96579.75;;;5.05;100.00
11001;BME280;5553;48.506;8.870;2023-04-27T01:36:45;96571.25;;;5.03;100.00
11001;BME280;5553;48.506;8.870;2023-04-27T01:39:13;96573.50;;;4.98;100.00
11001;BME280;5553;48.506;8.870;2023-04-27T01:41:44;96569.78;;;5.01;100.00
11001;BME280;5553;48.506;8.870;2023-04-27T01:44:12;96563.72;;;5.00;100.00
11001;BME280;5553;48.506;8.870;2023-04-27T01:46:40;96567.97;;;5.01;100.00
11001;BME280;5553;48.506;8.870;2023-04-27T01:49:09;96572.88;;;4.96;100.00
11001;BME280;5553;48.506;8.870;2023-04-27T01:51:37;96573.50;;;4.98;100.00
11001;BME280;5553;48.506;8.870;2023-04-27T01:54:05;96577.44;;;5.02;100.00
11001;BME280;5553;48.506;8.870;2023-04-27T01:56:33;96573.13;;;5.19;100.00
11001;BME280;5553;48.506;8.870;2023-04-27T01:59:04;96567.69;;;5.12;100.00
11001;BME280;5553;48.506;8.870;2023-04-27T02:01:32;96560.03;;;5.11;100.00
11001;BME280;5553;48.506;8.870;2023-04-27T02:04:01;96571.00;;;5.14;100.00
11001;BME280;5553;48.506;8.870;2023-04-27T02:06:29;96567.38;;;5.15;100.00
11001;BME280;5553;48.506;8.870;2023-04-27T02:08:58;96567.91;;;5.19;100.00
11001;BME280;5553;48.506;8.870;2023-04-27T02:11:26;96563.84;;;5.25;100.00
11001;BME280;5553;48.506;8.870;2023-04-27T02:13:54;96567.59;;;5.22;100.00
11001;BME280;5553;48.506;8.870;2023-04-27T02:16:25;96572.81;;;5.22;100.00
11001;BME280;5553;48.506;8.870;2023-04-27T02:18:53;96568.41;;;5.22;100.00
11001;BME280;5553;48.506;8.870;2023-04-27T02:21:21;96573.63;;;5.22;100.00
11001;BME280;5553;48.506;8.870;2023-04-27T02:23:50;96562.34;;;5.22;100.00
11001;BME280;5553;48.506;8.870;2023-04-27T02:26:19;96564.47;;;5.18;100.00
11001;BME280;5553;48.506;8.870;2023-04-27T02:28:48;96571.19;;;5.21;100.00
11001;BME280;5553;48.506;8.870;2023-04-27T02:31:17;96570.50;;;5.19;100.00
11001;BME280;5553;48.506;8.870;2023-04-27T02:33:47;96570.69;;;5.17;100.00
11001;BME280;5553;48.506;8.870;2023-04-27T02:36:16;96569.75;;;5.27;100.00
11001;BME280;5553;48.506;8.870;2023-04-27T02:38:44;96573.81;;;5.29;100.00
11001;BME280;5553;48.506;8.870;2023-04-27T02:41:12;96569.75;;;5.27;100.00
11001;BME280;5553;48.506;8.870;2023-04-27T02:43:40;96572.69;;;5.32;100.00
11001;BME280;5553;48.506;8.870;2023-04-27T02:46:09;96567.78;;;5.29;100.00
11001;BME280;5553;48.506;8.870;2023-04-27T02:48:38;96572.38;;;5.35;100.00
11001;BME280;5553;48.506;8.870;2023-04-27T02:51:09;96572.69;;;5.32;100.00
11001;BME280;5553;48.506;8.870;2023-04-27T02:53:37;96563.88;;;5.33;100.00
11001;BME280;5553;48.506;8.870;2023-04-27T02:56:05;96563.22;;;5.31;100.00
11001;BME280;5553;48.506;8.870;2023-04-27T02:58:34;96563.88;;;5.33;100.00
11001;BME280;5553;48.506;8.870;2023-04-27T03:01:02;96569.09;;;5.33;100.00
11001;BME280;5553;48.506;8.870;2023-04-27T03:03:30;96561.72;;;5.28;100.00
11001;BME280;5553;48.506;8.870;2023-04-27T03:05:59;96571.72;;;5.33;100.00
11001;BME280;5553;48.506;8.870;2023-04-27T03:08:30;96574.50;;;5.31;100.00
11001;BME280;5553;48.506;8.870;2023-04-27T03:10:58;96572.38;;;5.27;100.00
11001;BME280;5553;48.506;8.870;2023-04-27T03:13:27;96579.66;;;5.15;100.00
11001;BME280;5553;48.506;8.870;2023-04-27T03:15:55;96573.09;;;5.11;100.00
11001;BME280;5553;48.506;8.870;2023-04-27T03:18:23;96584.03;;;5.06;100.00
11001;BME280;5553;48.506;8.870;2023-04-27T03:20:52;96587.03;;;5.19;100.00
11001;BME280;5553;48.506;8.870;2023-04-27T03:23:20;96583.91;;;5.16;100.00
11001;BME280;5553;48.506;8.870;2023-04-27T03:25:51;96586.06;;;5.20;100.00
11001;BME280;5553;48.506;8.870;2023-04-27T03:28:19;96589.13;;;5.16;100.00
11001;BME280;5553;48.506;8.870;2023-04-27T03:30:47;96592.13;;;5.21;100.00
11001;BME280;5553;48.506;8.870;2023-04-27T03:33:15;96594.34;;;5.16;100.00
11001;BME280;5553;48.506;8.870;2023-04-27T03:35:53;96590.94;;;5.15;100.00
11001;BME280;5553;48.506;8.870;2023-04-27T03:38:22;96589.78;;;5.10;100.00
11001;BME280;5553;48.506;8.870;2023-04-27T03:40:53;96594.50;;;5.06;100.00
11001;BME280;5553;48.506;8.870;2023-04-27T03:43:22;96595.31;;;5.07;100.00
11001;BME280;5553;48.506;8.870;2023-04-27T03:45:50;96588.63;;;5.12;100.00
11001;BME280;5553;48.506;8.870;2023-04-27T03:48:19;96590.13;;;5.15;100.00
11001;BME280;5553;48.506;8.870;2023-04-27T03:50:48;96586.47;;;5.08;100.00
11001;BME280;5553;48.506;8.870;2023-04-27T03:53:16;96592.84;;;5.05;100.00
11001;BME280;5553;48.506;8.870;2023-04-27T03:55:44;96592.69;;;5.07;100.00
11001;BME280;5553;48.506;8.870;2023-04-27T03:58:15;96595.44;;;5.05;100.00
11001;BME280;5553;48.506;8.870;2023-04-27T04:00:44;96596.25;;;5.06;100.00
11001;BME280;5553;48.506;8.870;2023-04-27T04:03:12;96591.69;;;4.99;100.00
11001;BME280;5553;48.506;8.870;2023-04-27T04:05:40;96594.81;;;5.03;100.00
11001;BME280;5553;48.506;8.870;2023-04-27T04:08:12;96594.81;;;5.03;100.00
11001;BME280;5553;48.506;8.870;2023-04-27T04:10:40;96605.06;;;4.96;100.00
11001;BME280;5553;48.506;8.870;2023-04-27T04:13:08;96603.59;;;5.02;100.00
11001;BME280;5553;48.506;8.870;2023-04-27T04:15:39;96611.09;;;4.97;100.00
11001;BME280;5553;48.506;8.870;2023-04-27T04:18:07;96608.13;;;4.92;100.00
11001;BME280;5553;48.506;8.870;2023-04-27T04:20:36;96611.75;;;4.99;100.00
11001;BME280;5553;48.506;8.870;2023-04-27T04:23:04;96600.34;;;5.00;100.00
11001;BME280;5553;48.506;8.870;2023-04-27T04:25:32;96599.81;;;4.96;100.00
11001;BME280;5553;48.506;8.870;2023-04-27T04:28:00;96608.81;;;5.02;100.00
11001;BME280;5553;48.506;8.870;2023-04-27T04:30:28;96604.28;;;5.04;100.00
11001;BME280;5553;48.506;8.870;2023-04-27T04:33:00;96609.53;;;5.12;100.00
11001;BME280;5553;48.506;8.870;2023-04-27T04:35:28;96601.06;;;5.10;100.00
11001;BME280;5553;48.506;8.870;2023-04-27T04:37:57;96602.78;;;5.02;100.00
11001;BME280;5553;48.506;8.870;2023-04-27T04:40:26;96602.84;;;5.10;100.00
11001;BME280;5553;48.506;8.870;2023-04-27T04:42:54;96603.50;;;5.12;100.00
11001;BME280;5553;48.506;8.870;2023-04-27T04:45:23;96604.63;;;5.09;100.00
11001;BME280;5553;48.506;8.870;2023-04-27T04:47:51;96607.59;;;5.14;100.00
11001;BME280;5553;48.506;8.870;2023-04-27T04:50:23;96607.91;;;5.11;100.00
11001;BME280;5553;48.506;8.870;2023-04-27T04:52:51;96612.16;;;5.12;100.00
11001;BME280;5553;48.506;8.870;2023-04-27T04:55:20;96620.31;;;5.09;100.00
11001;BME280;5553;48.506;8.870;2023-04-27T04:57:48;96621.66;;;5.13;100.00
11001;BME280;5553;48.506;8.870;2023-04-27T05:00:17;96623.31;;;5.14;100.00
11001;BME280;5553;48.506;8.870;2023-04-27T05:02:46;96621.41;;;5.25;100.00
11001;BME280;5553;48.506;8.870;2023-04-27T05:05:14;96619.91;;;5.22;100.00
11001;BME280;5553;48.506;8.870;2023-04-27T05:07:45;96621.44;;;5.33;100.00
11001;BME280;5553;48.506;8.870;2023-04-27T05:10:13;96625.19;;;5.30;100.00
11001;BME280;5553;48.506;8.870;2023-04-27T05:12:42;96617.88;;;5.42;100.00
11001;BME280;5553;48.506;8.870;2023-04-27T05:15:11;96611.34;;;5.46;100.00
11001;BME280;5553;48.506;8.870;2023-04-27T05:17:39;96608.47;;;5.57;100.00
11001;BME280;5553;48.506;8.870;2023-04-27T05:20:08;96605.19;;;5.63;100.00
11001;BME280;5553;48.506;8.870;2023-04-27T05:22:36;96600.97;;;5.70;100.00
11001;BME280;5553;48.506;8.870;2023-04-27T05:25:08;96592.94;;;5.64;100.00
11001;BME280;5553;48.506;8.870;2023-04-27T05:27:36;96603.28;;;5.74;100.00
11001;BME280;5553;48.506;8.870;2023-04-27T05:30:06;96608.75;;;5.88;100.00
11001;BME280;5553;48.506;8.870;2023-04-27T05:35:06;96605.22;;;6.14;100.00
